createdAt,value
2019-05-21T00:00:32.810Z,100331.06
2019-05-21T00:03:20.540Z,100331.94
2019-05-21T00:06:07.912Z,100335.55
2019-05-21T00:08:56.123Z,100332.25
2019-05-21T00:11:43.929Z,100333.01
2019-05-21T00:14:31.758Z,100339.88
2019-05-21T00:17:19.384Z,100339.42
2019-05-21T00:20:07.219Z,100341.70
2019-05-21T00:22:54.833Z,100334.66
2019-05-21T00:25:42.675Z,100341.83
2019-05-21T00:28:39.575Z,100337.82
2019-05-21T00:32:03.906Z,100338.45
2019-05-21T00:35:42.510Z,100342.67
2019-05-21T00:39:07.172Z,100347.22
2019-05-21T00:42:00.524Z,100354.66
2019-05-21T00:44:48.152Z,100348.48
2019-05-21T00:47:35.966Z,100365.49
2019-05-21T00:50:23.925Z,100364.16
2019-05-21T00:53:12.144Z,100361.63
2019-05-21T00:56:00.207Z,100360.14
2019-05-21T00:58:48.147Z,100367.19
2019-05-21T01:01:35.813Z,100359.56
2019-05-21T01:04:23.684Z,100361.26
2019-05-21T01:07:11.543Z,100363.71
2019-05-21T01:10:00.018Z,100360.45
2019-05-21T01:12:47.623Z,100361.80
2019-05-21T01:15:35.367Z,100360.09
2019-05-21T01:18:22.976Z,100355.82
2019-05-21T01:21:11.067Z,100351.42
2019-05-21T01:23:59.287Z,100365.76
2019-05-21T01:26:46.929Z,100365.27
2019-05-21T01:29:34.867Z,100366.02
2019-05-21T01:32:23.051Z,100357.61
2019-05-21T01:35:17.065Z,100360.09
2019-05-21T01:37:59.051Z,100356.89
2019-05-21T01:40:47.325Z,100359.08
2019-05-21T01:43:34.945Z,100368.02
2019-05-21T01:46:22.483Z,100357.52
2019-05-21T01:49:10.707Z,100365.17
2019-05-21T01:51:58.994Z,100372.13
2019-05-21T01:54:47.008Z,100373.37
2019-05-21T01:57:34.647Z,100370.56
2019-05-21T02:00:22.486Z,100366.56
2019-05-21T02:03:10.088Z,100369.36
2019-05-21T02:05:57.941Z,100372.48
2019-05-21T02:08:46.163Z,100369.59
2019-05-21T02:11:33.624Z,100365.34
2019-05-21T02:14:21.240Z,100361.34
2019-05-21T02:17:08.973Z,100371.63
2019-05-21T02:19:56.486Z,100368.74
2019-05-21T02:22:44.437Z,100370.93
2019-05-21T02:25:32.083Z,100373.37
2019-05-21T02:28:20.141Z,100368.65
2019-05-21T02:31:07.758Z,100366.95
2019-05-21T02:33:55.363Z,100367.38
2019-05-21T02:36:43.214Z,100371.12
2019-05-21T02:39:31.027Z,100382.27
2019-05-21T02:42:18.633Z,100381.05
2019-05-21T02:45:06.138Z,100384.79
2019-05-21T02:47:53.780Z,100386.83
2019-05-21T02:50:41.819Z,100385.28
2019-05-21T02:53:33.900Z,100380.15
2019-05-21T02:56:17.566Z,100384.28
2019-05-21T02:59:06.090Z,100385.80
2019-05-21T03:02:00.953Z,100390.78
2019-05-21T03:04:49.109Z,100395.75
2019-05-21T03:07:36.899Z,100389.93
2019-05-21T03:10:24.495Z,100398.88
2019-05-21T03:13:11.949Z,100398.24
2019-05-21T03:15:59.667Z,100396.91
2019-05-21T03:18:47.830Z,100405.77
2019-05-21T03:21:35.464Z,100408.44
2019-05-21T03:24:23.067Z,100412.36
2019-05-21T03:27:10.785Z,100415.73
2019-05-21T03:29:58.424Z,100415.05
2019-05-21T03:32:45.991Z,100417.73
2019-05-21T03:35:34.231Z,100418.33
2019-05-21T03:38:22.060Z,100418.91
2019-05-21T03:41:10.283Z,100426.52
2019-05-21T03:43:58.268Z,100420.94
2019-05-21T03:46:45.748Z,100422.73
2019-05-21T03:49:34.121Z,100419.78
2019-05-21T03:52:21.644Z,100423.42
2019-05-21T03:55:09.241Z,100424.00
2019-05-21T03:57:57.014Z,100426.78
2019-05-21T04:00:44.950Z,100419.92
2019-05-21T04:03:33.119Z,100425.47
2019-05-21T04:06:21.015Z,100433.11
2019-05-21T04:09:08.888Z,100433.89
2019-05-21T04:11:56.383Z,100436.20
2019-05-21T04:14:47.032Z,100435.59
2019-05-21T04:17:40.319Z,100444.77
2019-05-21T04:20:28.472Z,100442.11
2019-05-21T04:23:15.897Z,100443.73
2019-05-21T04:26:03.653Z,100446.69
2019-05-21T04:28:51.860Z,100450.13
2019-05-21T04:31:39.354Z,100460.31
2019-05-21T04:34:27.595Z,100458.98
2019-05-21T04:37:17.447Z,100460.44
2019-05-21T04:40:03.481Z,100463.47
2019-05-21T04:42:51.689Z,100468.05
2019-05-21T04:45:39.285Z,100473.12
2019-05-21T04:48:27.335Z,100469.21
2019-05-21T04:51:15.502Z,100471.68
2019-05-21T04:54:03.743Z,100468.08
2019-05-21T04:56:51.959Z,100474.55
2019-05-21T04:59:39.738Z,100478.07
2019-05-21T05:02:27.232Z,100484.26
2019-05-21T05:05:14.841Z,100476.65
2019-05-21T05:08:02.461Z,100473.78
2019-05-21T05:10:50.986Z,100477.05
2019-05-21T05:13:39.133Z,100484.58
2019-05-21T05:16:26.629Z,100482.64
2019-05-21T05:19:14.166Z,100496.27
2019-05-21T05:22:02.690Z,100493.15
2019-05-21T05:24:50.370Z,100495.98
2019-05-21T05:27:37.967Z,100494.73
2019-05-21T05:30:25.417Z,100503.34
2019-05-21T05:33:13.127Z,100511.15
2019-05-21T05:36:01.299Z,100503.91
2019-05-21T05:38:48.929Z,100514.95
2019-05-21T05:41:36.872Z,100515.92
2019-05-21T05:44:24.657Z,100506.09
2019-05-21T05:47:12.097Z,100500.55
2019-05-21T05:49:59.762Z,100510.55
2019-05-21T05:52:48.070Z,100514.34
2019-05-21T05:55:36.345Z,100522.67
2019-05-21T05:58:23.865Z,100518.95
2019-05-21T06:01:11.660Z,100519.52
2019-05-21T06:03:59.978Z,100521.53
2019-05-21T06:06:47.778Z,100533.23
2019-05-21T06:09:36.038Z,100536.47
2019-05-21T06:12:23.766Z,100535.33
2019-05-21T06:15:11.648Z,100547.80
2019-05-21T06:17:59.177Z,100539.58
2019-05-21T06:20:47.008Z,100545.61
2019-05-21T06:23:35.149Z,100553.13
2019-05-21T06:26:22.989Z,100547.02
2019-05-21T06:29:10.885Z,100544.84
2019-05-21T06:31:58.356Z,100546.38
2019-05-21T06:34:48.635Z,100546.24
2019-05-21T06:37:34.865Z,100553.00
2019-05-21T06:40:22.388Z,100550.69
2019-05-21T06:43:10.472Z,100559.27
2019-05-21T06:45:58.180Z,100560.60
2019-05-21T06:48:46.653Z,100557.64
2019-05-21T06:51:34.392Z,100567.15
2019-05-21T06:54:21.959Z,100574.80
2019-05-21T06:57:09.491Z,100575.85
2019-05-21T06:59:57.592Z,100579.09
2019-05-21T07:02:45.152Z,100584.73
2019-05-21T07:05:32.739Z,100589.91
2019-05-21T07:08:34.057Z,100597.06
2019-05-21T07:11:09.333Z,100597.63
2019-05-21T07:13:57.113Z,100604.11
2019-05-21T07:16:44.977Z,100605.73
2019-05-21T07:19:32.618Z,100607.19
2019-05-21T07:22:20.925Z,100605.80
2019-05-21T07:25:09.149Z,100615.98
2019-05-21T07:27:56.715Z,100612.84
2019-05-21T07:30:44.185Z,100620.78
2019-05-21T07:33:32.337Z,100627.53
2019-05-21T07:36:20.107Z,100629.64
2019-05-21T07:39:07.827Z,100632.09
2019-05-21T07:41:55.559Z,100635.83
2019-05-21T07:44:43.978Z,100644.39
2019-05-21T07:47:31.999Z,100645.94
2019-05-21T07:50:19.555Z,100643.64
2019-05-21T07:53:07.797Z,100651.94
2019-05-21T07:55:55.777Z,100652.79
2019-05-21T07:58:43.356Z,100650.68
2019-05-21T08:01:31.173Z,100656.12
2019-05-21T08:04:19.411Z,100655.09
2019-05-21T08:07:07.377Z,100660.52
2019-05-21T08:09:55.572Z,100665.75
2019-05-21T08:12:43.408Z,100668.70
2019-05-21T08:15:31.571Z,100670.73
2019-05-21T08:18:19.887Z,100675.48
2019-05-21T08:21:07.979Z,100681.20
2019-05-21T08:23:55.807Z,100679.96
2019-05-21T08:26:43.443Z,100685.20
2019-05-21T08:29:31.088Z,100681.66
2019-05-21T08:32:18.513Z,100690.44
2019-05-21T08:35:06.288Z,100685.86
2019-05-21T08:37:53.906Z,100684.25
2019-05-21T08:40:41.885Z,100687.48
2019-05-21T08:43:30.122Z,100684.16
2019-05-21T08:46:18.389Z,100688.84
2019-05-21T08:49:06.721Z,100688.08
2019-05-21T08:51:55.168Z,100691.30
2019-05-21T08:54:55.868Z,100694.85
2019-05-21T08:57:40.413Z,100689.69
2019-05-21T09:00:28.146Z,100696.25
2019-05-21T09:03:15.995Z,100699.11
2019-05-21T09:06:04.226Z,100708.45
2019-05-21T09:08:51.724Z,100703.41
2019-05-21T09:11:39.601Z,100705.21
2019-05-21T09:14:27.460Z,100721.52
2019-05-21T09:17:15.154Z,100708.35
2019-05-21T09:20:03.609Z,100711.23
2019-05-21T09:22:51.764Z,100710.28
2019-05-21T09:25:39.672Z,100720.65
2019-05-21T09:28:27.416Z,100722.01
2019-05-21T09:31:15.085Z,100728.28
2019-05-21T09:34:02.618Z,100720.46
2019-05-21T09:36:50.304Z,100736.77
2019-05-21T09:39:38.194Z,100732.95
2019-05-21T09:42:25.827Z,100735.06
2019-05-21T09:45:13.362Z,100746.59
2019-05-21T09:48:01.457Z,100738.97
2019-05-21T09:50:48.968Z,100741.42
2019-05-21T09:53:37.144Z,100753.83
2019-05-21T09:56:33.989Z,100749.72
2019-05-21T09:59:34.412Z,100619.63
2019-05-21T10:02:23.921Z,100759.73
2019-05-21T10:05:11.580Z,100763.06
2019-05-21T10:07:59.699Z,100761.44
2019-05-21T10:10:47.979Z,100763.70
2019-05-21T10:13:36.031Z,100770.38
2019-05-21T10:16:24.223Z,100766.96
2019-05-21T10:19:11.805Z,100768.48
2019-05-21T10:21:59.644Z,100768.48
2019-05-21T10:24:47.248Z,100775.73
2019-05-21T10:27:35.432Z,100778.89
2019-05-21T10:30:23.544Z,100777.84
2019-05-21T10:33:11.694Z,100784.18
2019-05-21T10:35:59.212Z,100788.18
2019-05-21T10:38:47.101Z,100793.52
2019-05-21T10:41:34.587Z,100798.16
2019-05-21T10:44:22.804Z,100804.78
2019-05-21T10:47:10.336Z,100798.27
2019-05-21T10:49:58.320Z,100799.38
2019-05-21T10:52:46.649Z,100811.51
2019-05-21T10:55:34.472Z,100810.50
2019-05-21T10:58:22.226Z,100808.76
2019-05-21T11:01:17.683Z,100811.62
2019-05-21T11:04:21.908Z,100822.63
2019-05-21T11:07:11.521Z,100820.73
2019-05-21T11:09:59.073Z,100828.74
2019-05-21T11:12:47.046Z,100838.71
2019-05-21T11:15:34.829Z,100838.90
2019-05-21T11:18:22.668Z,100845.38
2019-05-21T11:21:10.390Z,100849.12
2019-05-21T11:23:58.870Z,100844.89
2019-05-21T11:26:46.424Z,100852.94
2019-05-21T11:29:34.521Z,100853.98
2019-05-21T11:32:22.034Z,100845.98
2019-05-21T11:35:09.792Z,100855.77
2019-05-21T11:37:57.394Z,100855.64
2019-05-21T11:40:50.771Z,100855.27
2019-05-21T11:43:33.218Z,100864.25
2019-05-21T11:46:21.600Z,100865.09
2019-05-21T11:49:09.281Z,100865.02
2019-05-21T11:51:57.030Z,100862.49
2019-05-21T11:54:45.229Z,100870.66
2019-05-21T11:57:33.583Z,100863.62
2019-05-21T12:00:21.999Z,100872.48
2019-05-21T12:03:09.441Z,100886.79
2019-05-21T12:05:57.147Z,100885.09
2019-05-21T12:08:56.023Z,100892.28
2019-05-21T12:11:32.256Z,100880.13
2019-05-21T12:14:20.531Z,100886.14
2019-05-21T12:17:08.843Z,100891.66
2019-05-21T12:19:56.230Z,100897.22
2019-05-21T12:22:44.233Z,100891.91
2019-05-21T12:25:31.989Z,100896.39
2019-05-21T12:28:20.388Z,100898.80
2019-05-21T12:31:07.948Z,100898.31
2019-05-21T12:33:56.177Z,100906.03
2019-05-21T12:36:43.748Z,100898.21
2019-05-21T12:39:32.071Z,100907.48
2019-05-21T12:42:19.871Z,100911.55
2019-05-21T12:45:07.525Z,100914.27
2019-05-21T12:47:55.446Z,100918.77
2019-05-21T12:50:43.714Z,100916.71
2019-05-21T12:53:31.959Z,100923.78
2019-05-21T12:56:19.592Z,100926.41
2019-05-21T12:59:07.220Z,100920.16
2019-05-21T13:01:57.316Z,100919.31
2019-05-21T13:04:45.368Z,100923.70
2019-05-21T13:07:33.084Z,100931.90
2019-05-21T13:10:20.816Z,100927.16
2019-05-21T13:13:08.522Z,100930.19
2019-05-21T13:15:56.191Z,100946.96
2019-05-21T13:18:43.793Z,100941.80
2019-05-21T13:21:31.663Z,100943.94
2019-05-21T13:24:19.464Z,100945.98
2019-05-21T13:27:07.865Z,100946.28
2019-05-21T13:29:55.455Z,100948.22
2019-05-21T13:32:43.977Z,100949.00
2019-05-21T13:35:31.039Z,100961.23
2019-05-21T13:38:18.740Z,100959.47
2019-05-21T13:41:06.333Z,100964.25
2019-05-21T13:43:54.393Z,100961.05
2019-05-21T13:46:42.267Z,100964.19
2019-05-21T13:49:29.874Z,100958.96
2019-05-21T13:52:17.537Z,100958.53
2019-05-21T13:55:05.580Z,100956.19
2019-05-21T13:57:53.696Z,100969.30
2019-05-21T14:00:43.733Z,100959.66
2019-05-21T14:03:31.148Z,100967.03
2019-05-21T14:06:20.392Z,100958.66
2019-05-21T14:09:06.943Z,100963.46
2019-05-21T14:11:56.623Z,100970.55
2019-05-21T14:14:42.402Z,100974.37
2019-05-21T14:17:29.948Z,100986.45
2019-05-21T14:20:18.322Z,100994.30
2019-05-21T14:23:06.597Z,100976.37
2019-05-21T14:25:54.206Z,100981.61
2019-05-21T14:28:41.853Z,100978.52
2019-05-21T14:31:29.478Z,100983.70
2019-05-21T14:34:17.206Z,100982.80
2019-05-21T14:37:04.955Z,100991.58
2019-05-21T14:39:53.169Z,100987.90
2019-05-21T14:42:58.117Z,100991.77
2019-05-21T14:45:33.915Z,100989.20
2019-05-21T14:48:17.313Z,100989.07
2019-05-21T14:51:05.851Z,100989.07
2019-05-21T14:53:54.128Z,100990.27
2019-05-21T14:56:46.691Z,100980.02
2019-05-21T14:59:29.351Z,100999.92
2019-05-21T15:02:16.901Z,100990.27
2019-05-21T15:05:04.930Z,100999.20
2019-05-21T15:07:52.326Z,100986.68
2019-05-21T15:10:48.643Z,100998.27
2019-05-21T15:13:28.229Z,100998.75
2019-05-21T15:16:16.232Z,100989.66
2019-05-21T15:19:03.822Z,100990.85
2019-05-21T15:21:52.999Z,100986.37
2019-05-21T15:24:41.346Z,100990.20
2019-05-21T15:27:29.373Z,100990.10
2019-05-21T15:30:16.740Z,101002.10
2019-05-21T15:33:04.948Z,101001.97
2019-05-21T15:35:52.342Z,101002.75
2019-05-21T15:38:50.196Z,100994.52
2019-05-21T15:41:28.108Z,100997.97
2019-05-21T15:44:15.987Z,100999.06
2019-05-21T15:47:03.903Z,100995.50
2019-05-21T15:49:51.647Z,101000.18
2019-05-21T15:52:39.107Z,100999.97
2019-05-21T15:55:26.696Z,101005.63
2019-05-21T15:58:15.046Z,100869.55
2019-05-21T16:01:02.879Z,101009.39
2019-05-21T16:03:50.514Z,101011.15
2019-05-21T16:06:38.743Z,101009.77
2019-05-21T16:09:26.388Z,101014.55
2019-05-21T16:12:14.426Z,100901.39
2019-05-21T16:15:02.141Z,101020.36
2019-05-21T16:17:50.090Z,101020.51
2019-05-21T16:20:42.069Z,101019.59
2019-05-21T16:23:26.843Z,101022.44
2019-05-21T16:26:14.918Z,101023.36
2019-05-21T16:29:03.172Z,101028.20
2019-05-21T16:31:51.421Z,101031.19
2019-05-21T16:34:39.334Z,101023.48
2019-05-21T16:37:27.113Z,101023.89
2019-05-21T16:40:14.765Z,101022.25
2019-05-21T16:43:03.177Z,101029.73
2019-05-21T16:45:50.932Z,101028.31
2019-05-21T16:48:38.448Z,101028.91
2019-05-21T16:51:26.702Z,101028.55
2019-05-21T16:54:14.320Z,101036.20
2019-05-21T16:57:02.057Z,101035.49
2019-05-21T16:59:49.995Z,101042.66
2019-05-21T17:02:37.698Z,101047.89
2019-05-21T17:05:25.685Z,101042.36
2019-05-21T17:08:13.622Z,101038.91
2019-05-21T17:11:00.919Z,101036.05
2019-05-21T17:13:49.245Z,101035.46
2019-05-21T17:16:36.789Z,101038.80
2019-05-21T17:19:25.062Z,101053.98
2019-05-21T17:22:13.278Z,101052.73
2019-05-21T17:25:00.937Z,101051.42
2019-05-21T17:27:48.738Z,101063.47
2019-05-21T17:30:36.696Z,101077.60
2019-05-21T17:33:24.307Z,101062.86
2019-05-21T17:36:12.472Z,101068.93
2019-05-21T17:39:00.204Z,101072.13
2019-05-21T17:41:47.996Z,101069.23
2019-05-21T17:44:35.825Z,101075.46
2019-05-21T17:47:23.490Z,101072.62
2019-05-21T17:50:11.475Z,101087.41
2019-05-21T17:52:59.424Z,101087.82
2019-05-21T17:55:47.627Z,101085.25
2019-05-21T17:58:35.351Z,101097.03
2019-05-21T18:01:23.090Z,101092.64
2019-05-21T18:04:10.911Z,101094.05
2019-05-21T18:06:58.493Z,101108.11
2019-05-21T18:09:46.938Z,101098.25
2019-05-21T18:12:35.015Z,101108.62
2019-05-21T18:15:22.898Z,101102.76
2019-05-21T18:18:10.533Z,101120.71
2019-05-21T18:20:58.367Z,101121.50
2019-05-21T18:23:46.852Z,101122.45
2019-05-21T18:26:35.073Z,101123.64
2019-05-21T18:29:22.971Z,101134.38
2019-05-21T18:32:10.698Z,101134.70
2019-05-21T18:34:58.334Z,101134.42
2019-05-21T18:37:45.955Z,101128.72
2019-05-21T18:40:33.479Z,101130.59
2019-05-21T18:43:21.052Z,101137.80
2019-05-21T18:46:08.987Z,101147.88
2019-05-21T18:48:57.195Z,101144.32
2019-05-21T18:51:45.068Z,101141.75
2019-05-21T18:54:32.966Z,101155.84
2019-05-21T18:57:20.958Z,101153.72
2019-05-21T19:00:08.566Z,101162.19
2019-05-21T19:02:56.739Z,101170.98
2019-05-21T19:05:44.492Z,101178.18
2019-05-21T19:08:32.690Z,101180.62
2019-05-21T19:11:20.490Z,101174.81
2019-05-21T19:14:08.608Z,101196.83
2019-05-21T19:16:56.229Z,101186.16
2019-05-21T19:19:43.953Z,101189.53
2019-05-21T19:22:32.195Z,101191.81
2019-05-21T19:25:20.217Z,101218.16
2019-05-21T19:28:08.116Z,101201.79
2019-05-21T19:30:56.204Z,101211.80
2019-05-21T19:33:44.422Z,101217.98
2019-05-21T19:36:31.936Z,101208.66
2019-05-21T19:39:19.858Z,101215.64
2019-05-21T19:42:07.900Z,101212.11
2019-05-21T19:44:56.177Z,101222.63
2019-05-21T19:47:43.936Z,101231.56
2019-05-21T19:50:31.659Z,101220.97
2019-05-21T19:53:19.237Z,101226.03
2019-05-21T19:56:07.602Z,101221.98
2019-05-21T19:58:55.341Z,101233.02
2019-05-21T20:01:43.093Z,101237.97
2019-05-21T20:04:30.886Z,101227.30
2019-05-21T20:07:18.844Z,101242.50
2019-05-21T20:10:06.716Z,101242.76
2019-05-21T20:12:54.828Z,101246.91
2019-05-21T20:15:42.624Z,101251.61
2019-05-21T20:18:30.163Z,101245.58
2019-05-21T20:21:18.042Z,101250.11
2019-05-21T20:24:05.823Z,101252.39
2019-05-21T20:26:53.409Z,101251.27
2019-05-21T20:29:41.645Z,101261.30
2019-05-21T20:32:29.332Z,101272.91
2019-05-21T20:35:17.332Z,101264.64
2019-05-21T20:38:05.540Z,101260.95
2019-05-21T20:40:53.817Z,101272.46
2019-05-21T20:43:41.839Z,101270.89
2019-05-21T20:46:29.505Z,101277.94
2019-05-21T20:49:17.618Z,101280.95
2019-05-21T20:52:18.225Z,101285.52
2019-05-21T20:54:53.448Z,101280.72
2019-05-21T20:57:41.601Z,101284.44
2019-05-21T21:00:34.724Z,101273.34
2019-05-21T21:03:22.672Z,101280.67
2019-05-21T21:06:10.187Z,101281.68
2019-05-21T21:08:58.291Z,101272.89
2019-05-21T21:11:46.097Z,101281.41
2019-05-21T21:14:34.238Z,101277.41
2019-05-21T21:17:22.053Z,101291.34
2019-05-21T21:20:10.296Z,101286.88
2019-05-21T21:22:58.035Z,101295.05
2019-05-21T21:25:45.841Z,101296.67
2019-05-21T21:28:37.203Z,101291.88
2019-05-21T21:31:22.489Z,101296.23
2019-05-21T21:34:10.270Z,101287.02
2019-05-21T21:36:58.713Z,101297.43
2019-05-21T21:39:46.971Z,101303.41
2019-05-21T21:42:34.611Z,101301.09
2019-05-21T21:45:22.444Z,101297.20
2019-05-21T21:48:10.880Z,101301.25
2019-05-21T21:50:59.006Z,101313.84
2019-05-21T21:53:47.209Z,101302.00
2019-05-21T21:56:35.510Z,101307.38
2019-05-21T21:59:23.658Z,101301.33
2019-05-21T22:04:43.964Z,101295.34
2019-05-21T22:07:31.532Z,101321.23
2019-05-21T22:10:19.616Z,101305.46
2019-05-21T22:13:07.850Z,101298.33
2019-05-21T22:15:55.278Z,101299.60
2019-05-21T22:18:43.632Z,101308.33
2019-05-21T22:21:31.159Z,101309.03
2019-05-21T22:24:19.299Z,101310.11
2019-05-21T22:27:07.159Z,101309.23
2019-05-21T22:29:54.813Z,101312.70
2019-05-21T22:32:42.612Z,101313.09
2019-05-21T22:35:30.488Z,101314.03
2019-05-21T22:38:18.438Z,101317.42
2019-05-21T22:41:06.515Z,101314.47
2019-05-21T22:43:54.695Z,101325.76
2019-05-21T22:46:42.927Z,101322.66
2019-05-21T22:49:33.825Z,101322.23
2019-05-21T22:52:17.940Z,101321.90
2019-05-21T22:55:06.386Z,101322.97
2019-05-21T22:57:54.173Z,101325.89
2019-05-21T23:00:41.922Z,101329.02
2019-05-21T23:03:30.100Z,101325.50
2019-05-21T23:06:18.192Z,101326.36
2019-05-21T23:09:06.958Z,101322.63
2019-05-21T23:11:54.870Z,101325.24
2019-05-21T23:14:42.736Z,101321.17
2019-05-21T23:17:31.005Z,101323.15
2019-05-21T23:20:18.558Z,101326.10
2019-05-21T23:23:06.868Z,101331.89
2019-05-21T23:25:55.123Z,101325.13
2019-05-21T23:28:42.688Z,101327.66
2019-05-21T23:31:30.718Z,101326.28
2019-05-21T23:34:19.022Z,101323.15
2019-05-21T23:37:07.529Z,101323.66
2019-05-21T23:39:55.735Z,101331.94
2019-05-21T23:42:43.763Z,101324.90
2019-05-21T23:45:31.642Z,101331.00
2019-05-21T23:48:19.525Z,101325.67
2019-05-21T23:51:07.205Z,101321.56
2019-05-21T23:53:55.483Z,101323.80
2019-05-21T23:56:43.774Z,101330.57
2019-05-21T23:59:31.914Z,101341.97
